sensor_id;sensor_type;location;lat;lon;timestamp;temperature;humidity
4090;DHT22;2059;48.538;12.146;2023-02-28T00:02:45;0.20;90.00
4090;DHT22;2059;48.538;12.146;2023-02-28T00:07:47;0.30;90.00
4090;DHT22;2059;48.538;12.146;2023-02-28T00:12:49;0.20;90.20
4090;DHT22;2059;48.538;12.146;2023-02-28T00:17:53;0.30;90.30
4090;DHT22;2059;48.538;12.146;2023-02-28T00:22:55;0.20;90.10
4090;DHT22;2059;48.538;12.146;2023-02-28T00:27:57;0.30;90.30
4090;DHT22;2059;48.538;12.146;2023-02-28T00:33:00;0.20;90.50
4090;DHT22;2059;48.538;12.146;2023-02-28T00:38:02;0.20;90.50
4090;DHT22;2059;48.538;12.146;2023-02-28T00:43:03;0.00;90.70
4090;DHT22;2059;48.538;12.146;2023-02-28T00:48:07;0.00;90.90
4090;DHT22;2059;48.538;12.146;2023-02-28T00:53:08;0.10;90.70
4090;DHT22;2059;48.538;12.146;2023-02-28T00:58:10;0.10;90.70
4090;DHT22;2059;48.538;12.146;2023-02-28T01:03:13;0.20;90.80
4090;DHT22;2059;48.538;12.146;2023-02-28T01:08:15;0.00;91.00
4090;DHT22;2059;48.538;12.146;2023-02-28T01:13:18;0.10;91.10
4090;DHT22;2059;48.538;12.146;2023-02-28T01:18:21;0.10;91.20
4090;DHT22;2059;48.538;12.146;2023-02-28T01:23:23;-0.10;91.20
4090;DHT22;2059;48.538;12.146;2023-02-28T01:28:25;-0.10;91.40
4090;DHT22;2059;48.538;12.146;2023-02-28T01:33:28;-0.10;91.40
4090;DHT22;2059;48.538;12.146;2023-02-28T01:38:31;-0.10;91.70
4090;DHT22;2059;48.538;12.146;2023-02-28T01:43:53;0.00;91.50
4090;DHT22;2059;48.538;12.146;2023-02-28T01:49:01;-0.10;91.60
4090;DHT22;2059;48.538;12.146;2023-02-28T01:54:07;-0.20;91.80
4090;DHT22;2059;48.538;12.146;2023-02-28T01:59:19;-0.10;91.90
4090;DHT22;2059;48.538;12.146;2023-02-28T02:04:27;-0.20;92.30
4090;DHT22;2059;48.538;12.146;2023-02-28T02:09:33;-0.40;92.40
4090;DHT22;2059;48.538;12.146;2023-02-28T02:14:46;-0.40;92.90
4090;DHT22;2059;48.538;12.146;2023-02-28T02:25:32;-0.10;92.20
4090;DHT22;2059;48.538;12.146;2023-02-28T02:36:11;-0.10;92.40
4090;DHT22;2059;48.538;12.146;2023-02-28T02:41:18;-0.30;92.60
4090;DHT22;2059;48.538;12.146;2023-02-28T02:46:23;-0.30;92.80
4090;DHT22;2059;48.538;12.146;2023-02-28T02:51:28;-0.20;92.90
4090;DHT22;2059;48.538;12.146;2023-02-28T02:56:33;-0.10;92.60
4090;DHT22;2059;48.538;12.146;2023-02-28T03:01:36;-0.10;92.80
4090;DHT22;2059;48.538;12.146;2023-02-28T03:06:40;-0.20;92.90
4090;DHT22;2059;48.538;12.146;2023-02-28T03:11:42;-0.10;92.80
4090;DHT22;2059;48.538;12.146;2023-02-28T03:16:56;-0.20;93.00
4090;DHT22;2059;48.538;12.146;2023-02-28T03:27:34;-0.10;93.00
4090;DHT22;2059;48.538;12.146;2023-02-28T03:32:42;-0.10;93.40
4090;DHT22;2059;48.538;12.146;2023-02-28T03:37:52;-0.20;93.30
4090;DHT22;2059;48.538;12.146;2023-02-28T03:42:59;-0.20;93.40
4090;DHT22;2059;48.538;12.146;2023-02-28T03:48:03;-0.30;93.60
4090;DHT22;2059;48.538;12.146;2023-02-28T03:53:11;-0.30;93.70
4090;DHT22;2059;48.538;12.146;2023-02-28T03:58:19;-0.40;93.80
4090;DHT22;2059;48.538;12.146;2023-02-28T04:03:25;-0.40;93.80
4090;DHT22;2059;48.538;12.146;2023-02-28T04:08:28;-0.50;93.90
4090;DHT22;2059;48.538;12.146;2023-02-28T04:13:30;-0.30;93.70
4090;DHT22;2059;48.538;12.146;2023-02-28T04:18:32;-0.30;93.60
4090;DHT22;2059;48.538;12.146;2023-02-28T04:23:35;-0.40;93.70
4090;DHT22;2059;48.538;12.146;2023-02-28T04:28:37;-0.40;93.70
4090;DHT22;2059;48.538;12.146;2023-02-28T04:33:39;-0.20;93.60
4090;DHT22;2059;48.538;12.146;2023-02-28T04:38:42;-0.20;93.50
4090;DHT22;2059;48.538;12.146;2023-02-28T04:43:44;-0.20;93.30
4090;DHT22;2059;48.538;12.146;2023-02-28T04:48:45;-0.30;93.40
4090;DHT22;2059;48.538;12.146;2023-02-28T04:53:49;-0.50;93.50
4090;DHT22;2059;48.538;12.146;2023-02-28T04:58:50;-0.30;93.60
4090;DHT22;2059;48.538;12.146;2023-02-28T05:03:55;-0.20;93.20
4090;DHT22;2059;48.538;12.146;2023-02-28T05:08:58;-0.30;93.40
4090;DHT22;2059;48.538;12.146;2023-02-28T05:14:00;-0.40;93.60
4090;DHT22;2059;48.538;12.146;2023-02-28T05:19:02;-0.10;93.30
4090;DHT22;2059;48.538;12.146;2023-02-28T05:24:09;-0.20;93.20
4090;DHT22;2059;48.538;12.146;2023-02-28T05:29:11;-0.30;93.20
4090;DHT22;2059;48.538;12.146;2023-02-28T05:34:13;-0.50;93.50
4090;DHT22;2059;48.538;12.146;2023-02-28T05:39:17;-0.50;93.60
4090;DHT22;2059;48.538;12.146;2023-02-28T05:44:19;-0.50;93.80
4090;DHT22;2059;48.538;12.146;2023-02-28T05:49:20;-0.40;93.70
4090;DHT22;2059;48.538;12.146;2023-02-28T05:54:24;-0.40;93.80
4090;DHT22;2059;48.538;12.146;2023-02-28T05:59:25;-0.60;93.90
4090;DHT22;2059;48.538;12.146;2023-02-28T06:04:27;-0.60;94.00
4090;DHT22;2059;48.538;12.146;2023-02-28T06:09:30;-0.40;93.70
4090;DHT22;2059;48.538;12.146;2023-02-28T06:14:33;-0.30;93.60
4090;DHT22;2059;48.538;12.146;2023-02-28T06:19:37;-0.20;93.50
4090;DHT22;2059;48.538;12.146;2023-02-28T06:24:41;-0.20;93.40
4090;DHT22;2059;48.538;12.146;2023-02-28T06:29:43;0.00;93.10
4090;DHT22;2059;48.538;12.146;2023-02-28T06:34:45;0.00;93.20
4090;DHT22;2059;48.538;12.146;2023-02-28T06:39:48;0.00;93.00
4090;DHT22;2059;48.538;12.146;2023-02-28T06:44:50;0.20;93.10
4090;DHT22;2059;48.538;12.146;2023-02-28T06:49:52;0.40;92.90
4090;DHT22;2059;48.538;12.146;2023-02-28T06:54:55;0.20;93.10
4090;DHT22;2059;48.538;12.146;2023-02-28T07:00:05;0.50;93.10
4090;DHT22;2059;48.538;12.146;2023-02-28T07:05:08;0.70;92.90
4090;DHT22;2059;48.538;12.146;2023-02-28T07:10:11;0.70;92.30
4090;DHT22;2059;48.538;12.146;2023-02-28T07:15:15;0.60;92.00
4090;DHT22;2059;48.538;12.146;2023-02-28T07:20:17;0.50;92.30
4090;DHT22;2059;48.538;12.146;2023-02-28T07:25:20;0.60;92.10
4090;DHT22;2059;48.538;12.146;2023-02-28T07:30:22;0.80;91.70
4090;DHT22;2059;48.538;12.146;2023-02-28T07:35:24;0.70;91.50
4090;DHT22;2059;48.538;12.146;2023-02-28T07:40:27;0.90;91.40
4090;DHT22;2059;48.538;12.146;2023-02-28T07:45:30;0.90;91.10
4090;DHT22;2059;48.538;12.146;2023-02-28T07:50:32;1.10;91.20
4090;DHT22;2059;48.538;12.146;2023-02-28T07:55:36;1.30;91.00
4090;DHT22;2059;48.538;12.146;2023-02-28T08:00:38;1.20;90.70
4090;DHT22;2059;48.538;12.146;2023-02-28T08:05:40;1.30;90.70
4090;DHT22;2059;48.538;12.146;2023-02-28T08:10:44;1.50;90.30
4090;DHT22;2059;48.538;12.146;2023-02-28T08:15:45;1.70;90.10
4090;DHT22;2059;48.538;12.146;2023-02-28T08:20:47;1.90;89.70
4090;DHT22;2059;48.538;12.146;2023-02-28T08:25:54;2.00;89.00
4090;DHT22;2059;48.538;12.146;2023-02-28T08:30:56;2.30;89.10
4090;DHT22;2059;48.538;12.146;2023-02-28T08:35:58;2.40;87.50
4090;DHT22;2059;48.538;12.146;2023-02-28T08:41:03;2.40;87.00
4090;DHT22;2059;48.538;12.146;2023-02-28T08:46:07;2.50;87.50
4090;DHT22;2059;48.538;12.146;2023-02-28T08:51:12;2.90;87.20
4090;DHT22;2059;48.538;12.146;2023-02-28T08:56:16;2.80;86.20
4090;DHT22;2059;48.538;12.146;2023-02-28T09:01:19;3.10;85.80
4090;DHT22;2059;48.538;12.146;2023-02-28T09:06:23;3.30;85.10
4090;DHT22;2059;48.538;12.146;2023-02-28T09:11:27;3.20;84.90
4090;DHT22;2059;48.538;12.146;2023-02-28T09:16:30;3.80;85.70
4090;DHT22;2059;48.538;12.146;2023-02-28T09:21:32;3.70;83.80
4090;DHT22;2059;48.538;12.146;2023-02-28T09:26:35;4.50;82.20
4090;DHT22;2059;48.538;12.146;2023-02-28T09:31:38;4.40;80.60
4090;DHT22;2059;48.538;12.146;2023-02-28T09:36:40;5.00;81.20
4090;DHT22;2059;48.538;12.146;2023-02-28T09:41:45;4.90;79.20
4090;DHT22;2059;48.538;12.146;2023-02-28T09:46:55;4.90;80.20
4090;DHT22;2059;48.538;12.146;2023-02-28T09:52:00;5.20;78.30
4090;DHT22;2059;48.538;12.146;2023-02-28T09:57:10;5.50;78.70
4090;DHT22;2059;48.538;12.146;2023-02-28T10:02:35;5.30;78.00
4090;DHT22;2059;48.538;12.146;2023-02-28T10:07:50;5.30;78.20
4090;DHT22;2059;48.538;12.146;2023-02-28T10:13:04;5.80;77.30
4090;DHT22;2059;48.538;12.146;2023-02-28T10:18:12;5.60;77.60
4090;DHT22;2059;48.538;12.146;2023-02-28T10:23:20;5.60;77.30
4090;DHT22;2059;48.538;12.146;2023-02-28T10:28:25;5.70;77.80
4090;DHT22;2059;48.538;12.146;2023-02-28T10:33:30;5.80;76.60
4090;DHT22;2059;48.538;12.146;2023-02-28T10:38:33;5.70;76.50
4090;DHT22;2059;48.538;12.146;2023-02-28T10:43:37;6.10;76.80
4090;DHT22;2059;48.538;12.146;2023-02-28T10:48:41;6.60;75.10
4090;DHT22;2059;48.538;12.146;2023-02-28T10:53:48;6.80;74.80
4090;DHT22;2059;48.538;12.146;2023-02-28T10:58:55;6.60;74.20
4090;DHT22;2059;48.538;12.146;2023-02-28T11:03:57;6.90;74.90
4090;DHT22;2059;48.538;12.146;2023-02-28T11:09:01;6.70;74.30
4090;DHT22;2059;48.538;12.146;2023-02-28T11:14:06;6.60;74.50
4090;DHT22;2059;48.538;12.146;2023-02-28T11:19:19;6.60;75.70
4090;DHT22;2059;48.538;12.146;2023-02-28T11:24:26;6.80;74.20
4090;DHT22;2059;48.538;12.146;2023-02-28T11:29:31;7.20;74.20
4090;DHT22;2059;48.538;12.146;2023-02-28T11:34:34;7.40;74.50
4090;DHT22;2059;48.538;12.146;2023-02-28T11:39:36;6.90;74.10
4090;DHT22;2059;48.538;12.146;2023-02-28T11:44:58;7.20;73.20
4090;DHT22;2059;48.538;12.146;2023-02-28T11:50:26;7.10;72.60
4090;DHT22;2059;48.538;12.146;2023-02-28T11:55:36;7.30;74.10
4090;DHT22;2059;48.538;12.146;2023-02-28T12:00:49;6.80;73.10
4090;DHT22;2059;48.538;12.146;2023-02-28T12:06:02;7.30;73.10
4090;DHT22;2059;48.538;12.146;2023-02-28T12:11:16;7.70;73.20
4090;DHT22;2059;48.538;12.146;2023-02-28T12:16:30;7.30;72.70
4090;DHT22;2059;48.538;12.146;2023-02-28T12:21:45;7.40;71.40
4090;DHT22;2059;48.538;12.146;2023-02-28T12:26:49;7.10;74.50
4090;DHT22;2059;48.538;12.146;2023-02-28T12:31:56;7.50;73.00
4090;DHT22;2059;48.538;12.146;2023-02-28T12:37:06;7.80;70.90
4090;DHT22;2059;48.538;12.146;2023-02-28T12:42:13;7.70;73.30
4090;DHT22;2059;48.538;12.146;2023-02-28T12:47:18;7.90;71.50
4090;DHT22;2059;48.538;12.146;2023-02-28T12:52:24;7.80;72.90
4090;DHT22;2059;48.538;12.146;2023-02-28T12:57:33;8.00;70.70
4090;DHT22;2059;48.538;12.146;2023-02-28T13:03:00;7.90;71.70
4090;DHT22;2059;48.538;12.146;2023-02-28T13:13:44;8.10;71.80
4090;DHT22;2059;48.538;12.146;2023-02-28T13:18:48;8.60;71.60
4090;DHT22;2059;48.538;12.146;2023-02-28T13:24:02;8.30;71.00
4090;DHT22;2059;48.538;12.146;2023-02-28T13:29:21;8.00;71.50
4090;DHT22;2059;48.538;12.146;2023-02-28T13:34:30;7.50;72.40
4090;DHT22;2059;48.538;12.146;2023-02-28T13:39:46;8.00;73.40
4090;DHT22;2059;48.538;12.146;2023-02-28T13:45:23;8.10;72.00
4090;DHT22;2059;48.538;12.146;2023-02-28T13:50:33;7.70;73.40
4090;DHT22;2059;48.538;12.146;2023-02-28T13:55:38;7.50;73.20
4090;DHT22;2059;48.538;12.146;2023-02-28T14:00:58;7.30;73.50
4090;DHT22;2059;48.538;12.146;2023-02-28T14:06:16;7.00;75.00
4090;DHT22;2059;48.538;12.146;2023-02-28T14:11:31;7.00;74.50
4090;DHT22;2059;48.538;12.146;2023-02-28T14:16:39;7.20;74.70
4090;DHT22;2059;48.538;12.146;2023-02-28T14:21:56;7.00;74.10
4090;DHT22;2059;48.538;12.146;2023-02-28T14:27:24;7.10;76.30
4090;DHT22;2059;48.538;12.146;2023-02-28T14:32:35;7.00;75.80
4090;DHT22;2059;48.538;12.146;2023-02-28T14:37:39;7.30;75.50
4090;DHT22;2059;48.538;12.146;2023-02-28T14:42:47;7.10;75.80
4090;DHT22;2059;48.538;12.146;2023-02-28T14:47:50;7.30;75.50
4090;DHT22;2059;48.538;12.146;2023-02-28T14:52:54;7.30;76.10
4090;DHT22;2059;48.538;12.146;2023-02-28T14:57:58;7.20;75.60
4090;DHT22;2059;48.538;12.146;2023-02-28T15:03:17;7.00;75.80
4090;DHT22;2059;48.538;12.146;2023-02-28T15:08:20;6.90;76.80
4090;DHT22;2059;48.538;12.146;2023-02-28T15:13:23;6.70;77.80
4090;DHT22;2059;48.538;12.146;2023-02-28T15:18:31;6.90;77.60
4090;DHT22;2059;48.538;12.146;2023-02-28T15:23:36;6.60;78.40
4090;DHT22;2059;48.538;12.146;2023-02-28T15:28:38;6.50;78.20
4090;DHT22;2059;48.538;12.146;2023-02-28T15:33:52;6.30;79.20
4090;DHT22;2059;48.538;12.146;2023-02-28T15:38:56;6.30;79.30
4090;DHT22;2059;48.538;12.146;2023-02-28T15:44:16;6.40;79.40
4090;DHT22;2059;48.538;12.146;2023-02-28T15:49:20;6.40;79.60
4090;DHT22;2059;48.538;12.146;2023-02-28T15:54:27;6.40;79.20
4090;DHT22;2059;48.538;12.146;2023-02-28T15:59:30;6.00;80.10
4090;DHT22;2059;48.538;12.146;2023-02-28T16:04:33;6.30;80.60
4090;DHT22;2059;48.538;12.146;2023-02-28T16:09:36;7.10;79.10
4090;DHT22;2059;48.538;12.146;2023-02-28T16:14:38;7.60;78.20
4090;DHT22;2059;48.538;12.146;2023-02-28T16:19:39;7.50;77.80
4090;DHT22;2059;48.538;12.146;2023-02-28T16:24:43;7.40;78.00
4090;DHT22;2059;48.538;12.146;2023-02-28T16:29:45;6.70;78.20
4090;DHT22;2059;48.538;12.146;2023-02-28T16:34:47;6.40;79.60
4090;DHT22;2059;48.538;12.146;2023-02-28T16:39:50;5.80;81.00
4090;DHT22;2059;48.538;12.146;2023-02-28T16:44:53;5.70;82.00
4090;DHT22;2059;48.538;12.146;2023-02-28T16:49:55;5.40;81.90
4090;DHT22;2059;48.538;12.146;2023-02-28T16:54:58;5.40;82.70
4090;DHT22;2059;48.538;12.146;2023-02-28T17:00:00;5.10;83.30
4090;DHT22;2059;48.538;12.146;2023-02-28T17:05:03;5.00;83.90
4090;DHT22;2059;48.538;12.146;2023-02-28T17:10:15;4.70;84.50
4090;DHT22;2059;48.538;12.146;2023-02-28T17:15:18;4.70;85.20
4090;DHT22;2059;48.538;12.146;2023-02-28T17:20:22;4.60;85.90
4090;DHT22;2059;48.538;12.146;2023-02-28T17:25:25;4.80;85.40
4090;DHT22;2059;48.538;12.146;2023-02-28T17:30:27;4.70;85.70
4090;DHT22;2059;48.538;12.146;2023-02-28T17:35:29;4.60;86.10
4090;DHT22;2059;48.538;12.146;2023-02-28T17:40:32;4.40;86.70
4090;DHT22;2059;48.538;12.146;2023-02-28T17:45:34;4.40;87.00
4090;DHT22;2059;48.538;12.146;2023-02-28T17:50:37;4.30;87.50
4090;DHT22;2059;48.538;12.146;2023-02-28T17:55:40;4.50;86.90
4090;DHT22;2059;48.538;12.146;2023-02-28T18:00:42;4.30;87.70
4090;DHT22;2059;48.538;12.146;2023-02-28T18:05:43;4.60;86.70
4090;DHT22;2059;48.538;12.146;2023-02-28T18:10:47;4.60;86.90
4090;DHT22;2059;48.538;12.146;2023-02-28T18:15:48;4.60;87.40
4090;DHT22;2059;48.538;12.146;2023-02-28T18:20:50;4.50;87.70
4090;DHT22;2059;48.538;12.146;2023-02-28T18:25:54;4.30;88.20
4090;DHT22;2059;48.538;12.146;2023-02-28T18:30:56;4.20;88.70
4090;DHT22;2059;48.538;12.146;2023-02-28T18:35:58;4.30;88.30
4090;DHT22;2059;48.538;12.146;2023-02-28T18:41:03;4.50;88.00
4090;DHT22;2059;48.538;12.146;2023-02-28T18:46:07;4.20;88.50
4090;DHT22;2059;48.538;12.146;2023-02-28T18:51:11;4.20;89.70
4090;DHT22;2059;48.538;12.146;2023-02-28T18:56:17;4.10;89.10
4090;DHT22;2059;48.538;12.146;2023-02-28T19:01:21;4.20;88.60
4090;DHT22;2059;48.538;12.146;2023-02-28T19:06:24;4.30;88.50
4090;DHT22;2059;48.538;12.146;2023-02-28T19:11:27;4.20;88.90
4090;DHT22;2059;48.538;12.146;2023-02-28T19:16:29;3.90;88.90
4090;DHT22;2059;48.538;12.146;2023-02-28T19:21:31;4.20;89.00
4090;DHT22;2059;48.538;12.146;2023-02-28T19:26:37;4.40;88.20
4090;DHT22;2059;48.538;12.146;2023-02-28T19:31:39;4.40;88.30
4090;DHT22;2059;48.538;12.146;2023-02-28T19:36:41;4.20;88.30
4090;DHT22;2059;48.538;12.146;2023-02-28T19:41:44;4.30;88.30
4090;DHT22;2059;48.538;12.146;2023-02-28T19:46:46;4.60;88.00
4090;DHT22;2059;48.538;12.146;2023-02-28T19:51:48;4.50;87.60
4090;DHT22;2059;48.538;12.146;2023-02-28T19:56:51;4.50;87.60
4090;DHT22;2059;48.538;12.146;2023-02-28T20:01:56;4.50;87.60
4090;DHT22;2059;48.538;12.146;2023-02-28T20:06:58;4.50;87.90
4090;DHT22;2059;48.538;12.146;2023-02-28T20:12:01;4.40;87.80
4090;DHT22;2059;48.538;12.146;2023-02-28T20:17:03;4.40;88.10
4090;DHT22;2059;48.538;12.146;2023-02-28T20:22:05;4.40;88.20
4090;DHT22;2059;48.538;12.146;2023-02-28T20:27:08;4.40;88.10
4090;DHT22;2059;48.538;12.146;2023-02-28T20:32:10;4.50;88.40
4090;DHT22;2059;48.538;12.146;2023-02-28T20:37:13;4.40;88.20
4090;DHT22;2059;48.538;12.146;2023-02-28T20:42:16;4.40;88.50
4090;DHT22;2059;48.538;12.146;2023-02-28T20:47:18;4.50;88.50
4090;DHT22;2059;48.538;12.146;2023-02-28T20:52:20;4.50;88.80
4090;DHT22;2059;48.538;12.146;2023-02-28T20:57:23;4.60;88.30
4090;DHT22;2059;48.538;12.146;2023-02-28T21:02:25;4.50;88.30
4090;DHT22;2059;48.538;12.146;2023-02-28T21:07:28;4.30;88.80
4090;DHT22;2059;48.538;12.146;2023-02-28T21:12:31;4.20;89.00
4090;DHT22;2059;48.538;12.146;2023-02-28T21:17:33;4.20;90.00
4090;DHT22;2059;48.538;12.146;2023-02-28T21:22:34;4.40;89.70
4090;DHT22;2059;48.538;12.146;2023-02-28T21:27:38;4.20;90.00
4090;DHT22;2059;48.538;12.146;2023-02-28T21:32:39;4.30;89.50
4090;DHT22;2059;48.538;12.146;2023-02-28T21:37:41;4.40;90.00
4090;DHT22;2059;48.538;12.146;2023-02-28T21:42:45;4.40;89.70
4090;DHT22;2059;48.538;12.146;2023-02-28T21:47:47;4.50;90.00
4090;DHT22;2059;48.538;12.146;2023-02-28T21:52:49;4.40;90.10
4090;DHT22;2059;48.538;12.146;2023-02-28T21:57:52;4.40;89.60
4090;DHT22;2059;48.538;12.146;2023-02-28T22:02:53;4.20;90.10
4090;DHT22;2059;48.538;12.146;2023-02-28T22:07:55;4.30;90.10
4090;DHT22;2059;48.538;12.146;2023-02-28T22:12:58;4.30;90.20
4090;DHT22;2059;48.538;12.146;2023-02-28T22:18:01;4.50;89.90
4090;DHT22;2059;48.538;12.146;2023-02-28T22:23:03;4.40;89.70
4090;DHT22;2059;48.538;12.146;2023-02-28T22:28:06;4.50;89.90
4090;DHT22;2059;48.538;12.146;2023-02-28T22:33:08;4.40;90.00
4090;DHT22;2059;48.538;12.146;2023-02-28T22:38:10;4.30;90.30
4090;DHT22;2059;48.538;12.146;2023-02-28T22:43:13;4.40;90.10
4090;DHT22;2059;48.538;12.146;2023-02-28T22:48:15;4.30;90.30
4090;DHT22;2059;48.538;12.146;2023-02-28T22:53:16;4.40;90.20
4090;DHT22;2059;48.538;12.146;2023-02-28T22:58:20;4.40;90.40
4090;DHT22;2059;48.538;12.146;2023-02-28T23:03:22;4.30;90.60
4090;DHT22;2059;48.538;12.146;2023-02-28T23:08:24;4.40;90.50
4090;DHT22;2059;48.538;12.146;2023-02-28T23:13:28;4.40;90.50
4090;DHT22;2059;48.538;12.146;2023-02-28T23:18:29;4.30;90.70
4090;DHT22;2059;48.538;12.146;2023-02-28T23:23:32;4.40;90.90
4090;DHT22;2059;48.538;12.146;2023-02-28T23:28:36;4.40;90.70
4090;DHT22;2059;48.538;12.146;2023-02-28T23:33:37;4.50;90.50
4090;DHT22;2059;48.538;12.146;2023-02-28T23:38:41;4.50;90.60
4090;DHT22;2059;48.538;12.146;2023-02-28T23:43:44;4.50;90.40
4090;DHT22;2059;48.538;12.146;2023-02-28T23:48:47;4.40;90.60
4090;DHT22;2059;48.538;12.146;2023-02-28T23:53:50;4.40;90.60
4090;DHT22;2059;48.538;12.146;2023-02-28T23:58:54;4.20;91.00
